Terminal Aerodrome Forecast
Issued by NWS Greer, SC

Home | Current Version | Previous Version | Text Only | Print | Product List | Glossary On
Versions: 1 2 3 4 5 6 7 8 9 10 11 12 13 14 15 16 17 18 19 20 21 22 23 24 25 26 27 28 29 30 31 32 33 34 35 36 37 38 39 40 41 42 43 44
000
FTUS42 KGSP 290541
TAFAVL
TAF
KAVL 290541Z 2906/3006 00000KT 6SM BR SCT070
     FM291000 33003KT 1 1/2SM BR SCT009
      TEMPO 2910/2913 00000KT 1/2SM FG VV003
     FM291300 33003KT P6SM SCT025
     FM291500 32003KT P6SM BKN030
     FM291700 18003KT P6SM BKN045 PROB30 2918/2921 4SM TSRA
      BKN040CB=

USA.gov is the U.S. government's official web portal to all federal, state and local government web resources and services.